createdAt,value
2018-01-27T00:02:03.664Z,4.90
2018-01-27T00:04:31.945Z,4.80
2018-01-27T00:06:59.491Z,4.80
2018-01-27T00:09:27.008Z,4.80
2018-01-27T00:11:55.335Z,4.60
2018-01-27T00:14:22.848Z,4.50
2018-01-27T00:16:50.398Z,4.50
2018-01-27T00:19:17.903Z,4.40
2018-01-27T00:21:46.224Z,4.20
2018-01-27T00:24:13.736Z,4.20
2018-01-27T00:26:41.292Z,4.20
2018-01-27T00:29:08.915Z,4.10
2018-01-27T00:31:37.195Z,3.90
2018-01-27T00:34:05.511Z,3.90
2018-01-27T00:36:33.032Z,3.90
2018-01-27T00:39:00.577Z,3.80
2018-01-27T00:41:28.104Z,3.70
2018-01-27T00:43:56.427Z,3.50
2018-01-27T00:46:23.987Z,3.50
2018-01-27T00:48:51.547Z,3.40
2018-01-27T00:51:19.832Z,3.30
2018-01-27T00:53:48.115Z,3.40
2018-01-27T00:56:16.437Z,3.40
2018-01-27T00:58:43.948Z,3.40
2018-01-27T01:01:11.509Z,3.30
2018-01-27T01:03:39.017Z,3.30
2018-01-27T01:06:06.570Z,3.30
2018-01-27T01:08:34.083Z,3.40
2018-01-27T01:11:02.391Z,3.40
2018-01-27T01:13:29.915Z,3.40
2018-01-27T01:15:57.484Z,3.30
2018-01-27T01:18:25.004Z,3.30
2018-01-27T01:20:52.544Z,3.20
2018-01-27T01:23:20.816Z,3.00
2018-01-27T01:25:48.380Z,3.00
2018-01-27T01:28:15.883Z,3.10
2018-01-27T01:30:44.155Z,3.20
2018-01-27T01:33:11.700Z,3.20
2018-01-27T01:35:39.207Z,3.30
2018-01-27T01:38:06.770Z,3.40
2018-01-27T01:40:34.280Z,3.50
2018-01-27T01:43:07.697Z,3.60
2018-01-27T01:45:35.215Z,3.70
2018-01-27T01:48:02.770Z,3.70
2018-01-27T01:50:30.304Z,3.70
2018-01-27T01:52:57.817Z,3.60
2018-01-27T01:55:25.367Z,3.60
2018-01-27T01:57:52.888Z,3.60
2018-01-27T02:00:20.448Z,3.60
2018-01-27T02:02:47.971Z,3.70
2018-01-27T02:05:15.531Z,3.70
2018-01-27T02:07:43.046Z,3.70
2018-01-27T02:10:10.595Z,3.70
2018-01-27T02:12:38.111Z,3.70
2018-01-27T02:15:05.659Z,3.70
2018-01-27T02:17:33.174Z,3.70
2018-01-27T02:20:01.461Z,3.70
2018-01-27T02:22:29.774Z,3.70
2018-01-27T02:24:57.287Z,3.70
2018-01-27T02:27:24.842Z,3.70
2018-01-27T02:29:52.350Z,3.70
2018-01-27T02:32:19.910Z,3.70
2018-01-27T02:34:47.419Z,3.70
2018-01-27T02:37:14.967Z,3.80
2018-01-27T02:39:42.483Z,3.80
2018-01-27T02:42:09.990Z,3.90
2018-01-27T02:44:37.535Z,3.90
2018-01-27T02:47:05.042Z,3.90
2018-01-27T02:49:32.586Z,4.00
2018-01-27T02:52:05.704Z,3.90
2018-01-27T02:54:33.265Z,4.00
2018-01-27T02:57:00.825Z,4.00
2018-01-27T02:59:28.371Z,4.00
2018-01-27T03:01:56.652Z,4.00
2018-01-27T03:04:24.955Z,4.00
2018-01-27T03:06:52.471Z,4.00
2018-01-27T03:09:20.013Z,4.00
2018-01-27T03:11:47.528Z,4.00
2018-01-27T03:14:15.076Z,4.10
2018-01-27T03:16:42.608Z,4.00
2018-01-27T03:19:10.913Z,4.00
2018-01-27T03:21:38.427Z,3.90
2018-01-27T03:24:05.985Z,3.90
2018-01-27T03:26:33.495Z,4.00
2018-01-27T03:29:01.043Z,3.90
2018-01-27T03:31:28.552Z,3.90
2018-01-27T03:33:56.101Z,3.80
2018-01-27T03:36:23.624Z,3.80
2018-01-27T03:38:51.190Z,3.80
2018-01-27T03:41:18.705Z,3.80
2018-01-27T03:43:46.260Z,3.80
2018-01-27T03:46:13.777Z,3.90
2018-01-27T03:48:41.295Z,3.90
2018-01-27T03:51:08.846Z,3.90
2018-01-27T03:53:36.367Z,4.00
2018-01-27T03:56:03.926Z,4.00
2018-01-27T03:58:31.436Z,4.10
2018-01-27T04:00:59.751Z,4.10
2018-01-27T04:03:27.283Z,4.10
2018-01-27T04:05:54.832Z,4.10
2018-01-27T04:08:22.380Z,4.20
2018-01-27T04:10:49.888Z,4.20
2018-01-27T04:13:17.444Z,4.20
2018-01-27T04:15:44.955Z,4.20
2018-01-27T04:18:12.513Z,4.30
2018-01-27T04:20:40.035Z,4.30
2018-01-27T04:23:07.560Z,4.30
2018-01-27T04:25:35.103Z,4.30
2018-01-27T04:28:02.651Z,4.30
2018-01-27T04:30:30.168Z,4.30
2018-01-27T04:32:57.716Z,4.30
2018-01-27T04:35:25.232Z,4.40
2018-01-27T04:37:53.536Z,4.50
2018-01-27T04:40:21.817Z,4.50
2018-01-27T04:42:50.131Z,4.50
2018-01-27T04:45:17.680Z,4.50
2018-01-27T04:47:45.955Z,4.60
2018-01-27T04:50:13.504Z,4.60
2018-01-27T04:52:41.049Z,4.70
2018-01-27T04:55:08.592Z,4.70
2018-01-27T04:57:36.127Z,4.70
2018-01-27T05:00:03.866Z,4.70
2018-01-27T05:02:31.387Z,4.70
2018-01-27T05:04:58.935Z,4.70
2018-01-27T05:07:26.447Z,4.70
2018-01-27T05:09:54.763Z,4.70
2018-01-27T05:12:22.275Z,4.70
2018-01-27T05:14:49.827Z,4.80
2018-01-27T05:17:17.353Z,4.90
2018-01-27T05:19:44.892Z,4.90
2018-01-27T05:22:12.416Z,4.90
2018-01-27T05:24:39.972Z,4.90
2018-01-27T05:27:08.252Z,4.90
2018-01-27T05:29:35.804Z,4.90
2018-01-27T05:32:03.360Z,4.90
2018-01-27T05:34:30.909Z,4.90
2018-01-27T05:36:58.419Z,4.90
2018-01-27T05:39:25.968Z,4.90
2018-01-27T05:41:53.488Z,4.90
2018-01-27T05:44:21.807Z,4.90
2018-01-27T05:46:49.319Z,4.90
2018-01-27T05:49:16.867Z,4.90
2018-01-27T05:51:44.398Z,4.80
2018-01-27T05:54:12.705Z,4.80
2018-01-27T05:56:40.224Z,4.80
2018-01-27T05:59:07.794Z,4.80
2018-01-27T06:01:35.316Z,4.80
2018-01-27T06:04:03.860Z,4.70
2018-01-27T06:06:31.381Z,4.70
2018-01-27T06:08:58.927Z,4.70
2018-01-27T06:11:26.443Z,4.70
2018-01-27T06:13:53.996Z,4.70
2018-01-27T06:16:21.519Z,4.80
2018-01-27T06:18:49.065Z,4.80
2018-01-27T06:21:16.580Z,4.80
2018-01-27T06:23:44.152Z,4.80
2018-01-27T06:26:11.668Z,4.80
2018-01-27T06:28:39.223Z,4.70
2018-01-27T06:31:07.517Z,4.70
2018-01-27T06:33:35.831Z,4.70
2018-01-27T06:36:03.351Z,4.70
2018-01-27T06:38:30.921Z,4.70
2018-01-27T06:40:58.444Z,4.70
2018-01-27T06:43:25.997Z,4.60
2018-01-27T06:45:53.512Z,4.60
2018-01-27T06:48:21.060Z,4.60
2018-01-27T06:50:48.572Z,4.60
2018-01-27T06:53:16.161Z,4.60
2018-01-27T06:55:43.681Z,4.50
2018-01-27T06:58:11.199Z,4.50
2018-01-27T07:00:38.744Z,4.50
2018-01-27T07:03:06.255Z,4.40
2018-01-27T07:05:34.570Z,4.40
2018-01-27T07:08:02.097Z,4.40
2018-01-27T07:10:29.647Z,4.40
2018-01-27T07:12:57.166Z,4.30
2018-01-27T07:15:24.707Z,4.30
2018-01-27T07:17:52.220Z,4.30
2018-01-27T07:20:20.532Z,4.30
2018-01-27T07:22:48.068Z,4.30
2018-01-27T07:25:16.383Z,4.40
2018-01-27T07:27:43.904Z,4.40
2018-01-27T07:30:11.448Z,4.40
2018-01-27T07:32:38.960Z,4.40
2018-01-27T07:35:06.516Z,4.40
2018-01-27T07:37:34.039Z,4.50
2018-01-27T07:40:01.591Z,4.50
2018-01-27T07:42:29.871Z,4.60
2018-01-27T07:44:57.417Z,4.60
2018-01-27T07:47:24.931Z,4.60
2018-01-27T07:49:53.246Z,4.70
2018-01-27T07:52:20.785Z,4.70
2018-01-27T07:54:49.093Z,4.70
2018-01-27T07:57:16.619Z,4.70
2018-01-27T07:59:44.182Z,4.80
2018-01-27T08:02:11.695Z,4.80
2018-01-27T08:04:40.014Z,4.80
2018-01-27T08:07:07.528Z,4.80
2018-01-27T08:09:35.082Z,4.80
2018-01-27T08:12:02.592Z,4.80
2018-01-27T08:14:30.140Z,4.90
2018-01-27T08:16:57.667Z,4.90
2018-01-27T08:19:25.216Z,5.00
2018-01-27T08:21:53.740Z,5.00
2018-01-27T08:24:21.288Z,5.10
2018-01-27T08:26:49.575Z,5.20
2018-01-27T08:29:17.901Z,5.20
2018-01-27T08:31:45.424Z,5.20
2018-01-27T08:34:12.980Z,5.30
2018-01-27T08:36:40.502Z,5.30
2018-01-27T08:39:08.047Z,5.30
2018-01-27T08:41:36.331Z,5.30
2018-01-27T08:44:03.884Z,5.30
2018-01-27T08:46:31.422Z,5.40
2018-01-27T08:48:59.007Z,5.40
2018-01-27T08:51:26.528Z,5.40
2018-01-27T08:53:54.843Z,5.50
2018-01-27T08:56:22.371Z,5.50
2018-01-27T08:58:49.925Z,5.50
2018-01-27T09:01:17.445Z,5.70
2018-01-27T09:03:45.753Z,5.90
2018-01-27T09:06:13.268Z,5.90
2018-01-27T09:08:40.821Z,6.00
2018-01-27T09:11:08.337Z,6.20
2018-01-27T09:13:35.881Z,6.40
2018-01-27T09:16:03.396Z,6.40
2018-01-27T09:18:31.721Z,6.80
2018-01-27T09:20:59.244Z,6.80
2018-01-27T09:23:27.556Z,7.20
2018-01-27T09:25:55.071Z,7.20
2018-01-27T09:28:22.620Z,7.30
2018-01-27T09:30:50.132Z,7.60
2018-01-27T09:33:17.682Z,9.30
2018-01-27T09:35:45.195Z,11.10
2018-01-27T09:38:13.521Z,13.40
2018-01-27T09:40:41.032Z,13.40
2018-01-27T09:43:08.591Z,14.00
2018-01-27T09:45:36.120Z,14.20
2018-01-27T09:48:03.667Z,14.00
2018-01-27T09:50:31.956Z,14.00
2018-01-27T09:53:00.276Z,13.80
2018-01-27T09:55:27.796Z,13.80
2018-01-27T09:57:55.370Z,13.30
2018-01-27T10:00:22.895Z,13.30
2018-01-27T10:02:50.448Z,13.60
2018-01-27T10:05:18.735Z,14.20
2018-01-27T10:07:47.048Z,14.50
2018-01-27T10:10:14.571Z,14.50
2018-01-27T10:12:42.136Z,14.70
2018-01-27T10:15:09.670Z,14.40
2018-01-27T10:17:37.226Z,14.40
2018-01-27T10:20:04.790Z,14.40
2018-01-27T10:22:33.112Z,14.30
2018-01-27T10:25:00.680Z,14.30
2018-01-27T10:27:28.248Z,14.20
2018-01-27T10:29:55.770Z,13.70
2018-01-27T10:32:23.328Z,13.70
2018-01-27T10:34:50.852Z,13.60
2018-01-27T10:37:18.417Z,13.60
2018-01-27T10:39:46.723Z,13.50
2018-01-27T10:42:14.291Z,13.50
2018-01-27T10:44:41.814Z,13.70
2018-01-27T10:47:09.337Z,14.00
2018-01-27T10:49:36.888Z,14.30
2018-01-27T10:52:04.412Z,14.40
2018-01-27T10:54:31.971Z,14.70
2018-01-27T10:56:59.505Z,14.70
2018-01-27T10:59:27.819Z,15.00
2018-01-27T11:01:55.336Z,15.00
2018-01-27T11:04:22.884Z,15.20
2018-01-27T11:06:50.396Z,15.10
2018-01-27T11:09:18.715Z,15.20
2018-01-27T11:11:46.235Z,15.20
2018-01-27T11:14:13.793Z,15.00
2018-01-27T11:16:43.260Z,15.30
2018-01-27T11:19:11.577Z,14.40
2018-01-27T11:21:39.095Z,14.40
2018-01-27T11:24:06.656Z,14.20
2018-01-27T11:26:34.188Z,13.60
2018-01-27T11:29:01.748Z,12.90
2018-01-27T11:31:29.277Z,12.10
2018-01-27T11:33:56.833Z,11.20
2018-01-27T11:36:24.364Z,10.80
2018-01-27T11:38:51.911Z,10.30
2018-01-27T11:41:19.425Z,9.80
2018-01-27T11:43:46.980Z,9.70
2018-01-27T11:46:14.559Z,9.60
2018-01-27T11:48:42.087Z,9.30
2018-01-27T11:51:09.611Z,9.00
2018-01-27T11:53:37.163Z,9.00
2018-01-27T11:56:05.451Z,9.00
2018-01-27T11:58:33.007Z,8.90
2018-01-27T12:01:00.531Z,9.00
2018-01-27T12:03:28.084Z,9.10
2018-01-27T12:05:55.648Z,9.20
2018-01-27T12:08:23.192Z,8.90
2018-01-27T12:10:50.745Z,8.70
2018-01-27T12:13:18.287Z,8.70
2018-01-27T12:15:45.807Z,8.70
2018-01-27T12:18:13.363Z,8.80
2018-01-27T12:20:40.916Z,8.70
2018-01-27T12:23:08.504Z,8.60
2018-01-27T12:25:36.036Z,8.40
2018-01-27T12:28:03.605Z,8.40
2018-01-27T12:30:31.123Z,8.30
2018-01-27T12:32:58.683Z,8.20
2018-01-27T12:35:26.198Z,8.20
2018-01-27T12:37:53.743Z,8.20
2018-01-27T12:40:21.275Z,8.10
2018-01-27T12:42:48.853Z,8.00
2018-01-27T12:45:16.396Z,8.10
2018-01-27T12:47:43.988Z,8.00
2018-01-27T12:50:11.544Z,7.90
2018-01-27T12:52:39.088Z,7.80
2018-01-27T12:55:06.605Z,7.70
2018-01-27T12:57:34.159Z,7.60
2018-01-27T13:00:02.441Z,7.70
2018-01-27T13:02:30.001Z,7.60
2018-01-27T13:04:57.525Z,7.50
2018-01-27T13:07:25.869Z,7.50
2018-01-27T13:09:54.153Z,7.50
2018-01-27T13:12:21.715Z,7.40
2018-01-27T13:14:49.240Z,7.40
2018-01-27T13:17:16.755Z,7.40
2018-01-27T13:19:44.303Z,7.50
2018-01-27T13:22:11.823Z,7.40
2018-01-27T13:24:40.136Z,7.60
2018-01-27T13:27:07.670Z,7.50
2018-01-27T13:29:35.232Z,7.50
2018-01-27T13:32:02.749Z,7.50
2018-01-27T13:34:30.324Z,7.50
2018-01-27T13:36:57.836Z,7.50
2018-01-27T13:39:25.395Z,7.60
2018-01-27T13:41:52.920Z,7.60
2018-01-27T13:44:21.251Z,7.60
2018-01-27T13:46:48.764Z,7.60
2018-01-27T13:49:16.307Z,7.60
2018-01-27T13:51:43.844Z,7.60
2018-01-27T13:54:11.405Z,7.60
2018-01-27T13:56:38.928Z,7.60
2018-01-27T13:59:06.479Z,7.50
2018-01-27T14:01:34.004Z,7.50
2018-01-27T14:04:01.553Z,7.40
2018-01-27T14:06:29.076Z,7.40
2018-01-27T14:08:56.625Z,7.40
2018-01-27T14:11:24.902Z,7.30
2018-01-27T14:13:52.462Z,7.30
2018-01-27T14:16:19.976Z,7.40
2018-01-27T14:18:47.529Z,7.30
2018-01-27T14:21:15.820Z,7.30
2018-01-27T14:23:44.110Z,7.20
2018-01-27T14:26:12.420Z,7.30
2018-01-27T14:28:40.296Z,7.30
2018-01-27T14:31:08.758Z,7.20
2018-01-27T14:33:36.488Z,7.20
2018-01-27T14:36:04.189Z,7.20
2018-01-27T14:38:31.866Z,7.30
2018-01-27T14:40:59.662Z,7.30
2018-01-27T14:43:27.286Z,7.30
2018-01-27T14:45:54.924Z,7.10
2018-01-27T14:48:23.507Z,7.00
2018-01-27T14:50:51.128Z,7.00
2018-01-27T14:53:19.840Z,6.90
2018-01-27T14:55:47.514Z,6.90
2018-01-27T14:58:15.102Z,6.90
2018-01-27T15:00:43.309Z,6.80
2018-01-27T15:03:10.828Z,6.80
2018-01-27T15:05:39.140Z,6.70
2018-01-27T15:08:06.743Z,6.70
2018-01-27T15:10:34.256Z,6.60
2018-01-27T15:13:02.552Z,6.40
2018-01-27T15:15:30.926Z,6.40
2018-01-27T15:17:59.001Z,6.40
2018-01-27T15:20:33.301Z,6.30
2018-01-27T15:23:01.509Z,6.30
2018-01-27T15:25:29.065Z,6.20
2018-01-27T15:27:56.583Z,6.20
2018-01-27T15:30:24.148Z,6.10
2018-01-27T15:32:51.668Z,6.00
2018-01-27T15:35:19.219Z,5.90
2018-01-27T15:37:46.770Z,5.80
2018-01-27T15:40:14.319Z,5.70
2018-01-27T15:42:42.614Z,5.50
2018-01-27T15:45:10.155Z,5.50
2018-01-27T15:47:37.688Z,5.50
2018-01-27T15:50:05.252Z,5.40
2018-01-27T15:52:32.773Z,5.40
2018-01-27T15:55:00.371Z,5.20
2018-01-27T15:57:27.887Z,5.20
2018-01-27T15:59:55.437Z,5.10
2018-01-27T16:02:22.964Z,5.00
2018-01-27T16:04:50.532Z,4.90
2018-01-27T16:07:18.052Z,4.80
2018-01-27T16:09:45.612Z,4.70
2018-01-27T16:12:13.133Z,4.70
2018-01-27T16:14:40.688Z,4.70
2018-01-27T16:17:09.032Z,4.60
2018-01-27T16:19:36.596Z,4.60
2018-01-27T16:22:04.129Z,4.60
2018-01-27T16:24:32.467Z,4.40
2018-01-27T16:27:00.020Z,4.40
2018-01-27T16:29:27.567Z,4.30
2018-01-27T16:31:55.084Z,4.30
2018-01-27T16:34:22.644Z,4.30
2018-01-27T16:36:50.156Z,4.30
2018-01-27T16:39:17.704Z,4.20
2018-01-27T16:41:45.237Z,4.20
2018-01-27T16:44:12.804Z,4.20
2018-01-27T16:46:40.320Z,4.20
2018-01-27T16:49:07.881Z,4.10
2018-01-27T16:51:35.478Z,4.00
2018-01-27T16:54:03.816Z,4.00
2018-01-27T16:56:31.356Z,3.90
2018-01-27T16:58:59.703Z,3.90
2018-01-27T17:01:27.216Z,3.90
2018-01-27T17:03:54.767Z,3.80
2018-01-27T17:06:22.293Z,3.90
2018-01-27T17:08:49.844Z,3.90
2018-01-27T17:11:18.139Z,3.90
2018-01-27T17:13:45.672Z,3.90
2018-01-27T17:16:13.249Z,4.00
2018-01-27T17:18:40.780Z,4.10
2018-01-27T17:21:08.333Z,4.00
2018-01-27T17:23:36.649Z,4.00
2018-01-27T17:26:04.205Z,4.00
2018-01-27T17:28:31.740Z,4.00
2018-01-27T17:30:59.304Z,4.00
2018-01-27T17:33:26.829Z,3.90
2018-01-27T17:35:54.464Z,3.90
2018-01-27T17:38:21.979Z,3.80
2018-01-27T17:40:49.547Z,3.80
2018-01-27T17:43:17.069Z,3.90
2018-01-27T17:45:44.632Z,3.90
2018-01-27T17:48:12.182Z,3.80
2018-01-27T17:50:39.796Z,3.80
2018-01-27T17:53:07.285Z,3.90
2018-01-27T17:55:34.835Z,3.90
2018-01-27T17:58:02.364Z,3.80
2018-01-27T18:00:29.929Z,3.70
2018-01-27T18:02:57.450Z,3.70
2018-01-27T18:05:25.015Z,3.70
2018-01-27T18:07:52.550Z,3.70
2018-01-27T18:10:20.096Z,3.60
2018-01-27T18:12:48.407Z,3.60
2018-01-27T18:15:15.957Z,3.60
2018-01-27T18:17:43.507Z,3.60
2018-01-27T18:20:11.075Z,3.60
2018-01-27T18:22:38.600Z,3.70
2018-01-27T18:25:06.176Z,3.60
2018-01-27T18:27:33.703Z,3.70
2018-01-27T18:30:01.303Z,3.80
2018-01-27T18:32:28.828Z,3.80
2018-01-27T18:34:56.390Z,3.80
2018-01-27T18:37:23.933Z,3.70
2018-01-27T18:39:51.480Z,3.80
2018-01-27T18:42:19.764Z,3.80
2018-01-27T18:44:48.083Z,3.80
2018-01-27T18:47:15.607Z,3.80
2018-01-27T18:49:43.155Z,3.90
2018-01-27T18:52:10.668Z,4.00
2018-01-27T18:54:39.009Z,4.20
2018-01-27T18:57:06.528Z,4.20
2018-01-27T18:59:34.851Z,4.30
2018-01-27T19:02:02.362Z,4.30
2018-01-27T19:04:29.917Z,4.30
2018-01-27T19:06:57.446Z,4.20
2018-01-27T19:09:25.003Z,4.20
2018-01-27T19:11:53.285Z,4.30
2018-01-27T19:14:20.842Z,4.30
2018-01-27T19:16:48.362Z,4.40
2018-01-27T19:19:15.912Z,4.40
2018-01-27T19:21:43.423Z,4.40
2018-01-27T19:24:10.969Z,4.40
2018-01-27T19:26:39.253Z,4.30
2018-01-27T19:29:07.569Z,4.30
2018-01-27T19:31:35.098Z,4.30
2018-01-27T19:34:02.654Z,4.30
2018-01-27T19:36:30.196Z,4.30
2018-01-27T19:38:57.735Z,4.30
2018-01-27T19:41:26.045Z,4.30
2018-01-27T19:43:53.595Z,4.30
2018-01-27T19:46:21.885Z,4.40
2018-01-27T19:48:50.216Z,4.40
2018-01-27T19:51:17.733Z,4.40
2018-01-27T19:53:45.302Z,4.40
2018-01-27T19:56:12.837Z,4.40
2018-01-27T19:58:40.488Z,4.50
2018-01-27T20:01:08.045Z,4.60
2018-01-27T20:03:35.625Z,4.50
2018-01-27T20:06:03.154Z,4.60
2018-01-27T20:08:30.707Z,4.60
2018-01-27T20:10:58.228Z,4.70
2018-01-27T20:13:25.771Z,4.70
2018-01-27T20:15:53.280Z,4.80
2018-01-27T20:18:23.395Z,4.90
2018-01-27T20:20:51.684Z,5.10
2018-01-27T20:23:19.244Z,5.10
2018-01-27T20:25:46.796Z,5.20
2018-01-27T20:28:14.356Z,5.30
2018-01-27T20:30:41.887Z,5.20
2018-01-27T20:33:10.403Z,5.20
2018-01-27T20:35:37.925Z,5.20
2018-01-27T20:38:05.899Z,5.20
2018-01-27T20:40:33.427Z,5.10
2018-01-27T20:43:00.996Z,5.20
2018-01-27T20:45:28.536Z,5.20
2018-01-27T20:47:56.102Z,5.20
2018-01-27T20:50:24.411Z,5.30
2018-01-27T20:52:51.970Z,5.30
2018-01-27T20:55:19.509Z,5.40
2018-01-27T20:57:47.097Z,5.40
2018-01-27T21:00:14.628Z,5.40
2018-01-27T21:02:42.372Z,5.40
2018-01-27T21:05:09.891Z,5.50
2018-01-27T21:07:37.537Z,5.50
2018-01-27T21:10:05.832Z,5.60
2018-01-27T21:12:33.400Z,5.60
2018-01-27T21:15:01.697Z,5.70
2018-01-27T21:17:29.211Z,5.60
2018-01-27T21:19:56.760Z,5.70
2018-01-27T21:22:24.316Z,5.80
2018-01-27T21:24:51.880Z,5.90
2018-01-27T21:27:20.172Z,5.80
2018-01-27T21:29:47.733Z,5.80
2018-01-27T21:32:16.054Z,5.90
2018-01-27T21:34:43.599Z,5.90
2018-01-27T21:37:11.896Z,6.00
2018-01-27T21:39:40.320Z,6.00
2018-01-27T21:42:07.882Z,6.00
2018-01-27T21:44:35.440Z,6.00
2018-01-27T21:47:02.964Z,6.00
2018-01-27T21:49:30.510Z,6.00
2018-01-27T21:51:58.021Z,6.00
2018-01-27T21:54:25.576Z,6.00
2018-01-27T21:56:53.123Z,6.00
2018-01-27T21:59:20.670Z,6.00
2018-01-27T22:01:48.181Z,6.00
2018-01-27T22:04:15.733Z,6.00
2018-01-27T22:06:43.249Z,6.00
2018-01-27T22:09:10.805Z,6.00
2018-01-27T22:11:38.315Z,6.00
2018-01-27T22:14:05.856Z,6.00
2018-01-27T22:16:33.377Z,6.00
2018-01-27T22:19:00.921Z,6.00
2018-01-27T22:21:28.431Z,6.00
2018-01-27T22:23:55.992Z,6.00
2018-01-27T22:26:23.518Z,6.00
2018-01-27T22:28:51.061Z,6.10
2018-01-27T22:31:18.585Z,6.10
2018-01-27T22:33:46.908Z,6.20
2018-01-27T22:36:14.412Z,6.10
2018-01-27T22:38:41.966Z,6.20
2018-01-27T22:41:09.492Z,6.20
2018-01-27T22:43:37.047Z,6.20
2018-01-27T22:46:04.599Z,6.20
2018-01-27T22:48:32.143Z,6.20
2018-01-27T22:50:59.668Z,6.20
2018-01-27T22:53:27.220Z,6.20
2018-01-27T22:55:54.738Z,6.20
2018-01-27T22:58:23.068Z,6.20
2018-01-27T23:00:56.317Z,6.20
2018-01-27T23:03:24.634Z,6.10
2018-01-27T23:05:52.148Z,6.10
2018-01-27T23:08:19.699Z,6.10
2018-01-27T23:10:47.220Z,6.10
2018-01-27T23:13:14.771Z,6.00
2018-01-27T23:15:44.875Z,6.00
2018-01-27T23:18:12.419Z,5.90
2018-01-27T23:20:40.715Z,5.90
2018-01-27T23:23:08.231Z,5.90
2018-01-27T23:25:35.788Z,6.00
2018-01-27T23:28:03.311Z,5.90
2018-01-27T23:30:31.634Z,6.00
2018-01-27T23:32:59.200Z,5.90
2018-01-27T23:35:26.747Z,5.90
2018-01-27T23:37:55.040Z,5.90
2018-01-27T23:40:23.374Z,5.90
2018-01-27T23:42:50.935Z,5.90
2018-01-27T23:45:18.484Z,5.80
2018-01-27T23:47:46.065Z,5.80
2018-01-27T23:50:13.621Z,5.80
2018-01-27T23:52:41.896Z,5.80
2018-01-27T23:55:09.453Z,5.80
2018-01-27T23:57:37.030Z,5.80
